Time;durP1;ratioP1;P1;durP2;ratioP2;P2;SDS_P1;SDS_P2;PMS_P1;PMS_P2;Temp;Humidity;BMP_temperature;BMP_pressure;BME280_temperature;BME280_humidity;BME280_pressure;Samples;Min_cycle;Max_cycle;Signal;HPM_P1;HPM_P2
2023/10/29 00:00:00;;;;;;;2.60;1.30;;;14.10;86.10;;;;;;5089355;28;20039;-70
2023/10/29 00:02:26;;;;;;;4.53;1.30;;;14.00;86.10;;;;;;5089880;28;20035;-69
2023/10/29 00:04:51;;;;;;;3.72;1.10;;;14.10;86.10;;;;;;5089034;28;20031;-70
2023/10/29 00:07:17;;;;;;;2.28;1.15;;;14.10;86.10;;;;;;5091923;28;20054;-70
2023/10/29 00:09:43;;;;;;;3.20;1.40;;;14.10;86.20;;;;;;5089756;28;20039;-70
2023/10/29 00:12:09;;;;;;;4.70;1.77;;;14.10;86.20;;;;;;5093797;28;20039;-70
2023/10/29 00:14:34;;;;;;;3.35;1.17;;;14.10;86.20;;;;;;5089131;28;20019;-69
2023/10/29 00:17:00;;;;;;;3.47;1.20;;;14.10;86.10;;;;;;5087980;28;20535;-70
2023/10/29 00:19:26;;;;;;;4.40;1.38;;;14.10;86.20;;;;;;5090593;28;20055;-69
2023/10/29 00:21:52;;;;;;;2.78;1.20;;;14.10;86.20;;;;;;5090502;28;20036;-69
2023/10/29 00:24:18;;;;;;;3.40;1.42;;;14.20;86.20;;;;;;5089017;28;20028;-69
2023/10/29 00:26:43;;;;;;;3.25;1.27;;;14.20;86.10;;;;;;5090085;28;20058;-69
2023/10/29 00:29:09;;;;;;;2.08;1.13;;;14.20;86.10;;;;;;5090300;28;20028;-69
2023/10/29 00:31:35;;;;;;;3.15;1.27;;;14.20;86.10;;;;;;5090756;28;20173;-69
2023/10/29 00:34:02;;;;;;;4.68;1.23;;;14.20;86.10;;;;;;5090862;28;20125;-69
2023/10/29 00:36:28;;;;;;;5.32;1.30;;;14.20;86.10;;;;;;5090395;28;20035;-69
2023/10/29 00:38:55;;;;;;;5.28;1.23;;;14.20;86.10;;;;;;5072481;28;20318;-69
2023/10/29 00:41:21;;;;;;;4.50;1.10;;;14.20;86.10;;;;;;5086871;28;20463;-70
2023/10/29 00:43:47;;;;;;;2.78;1.17;;;14.30;86.70;;;;;;5095490;28;20119;-69
2023/10/29 00:46:14;;;;;;;1.60;1.10;;;14.30;86.10;;;;;;5087971;28;20065;-69
2023/10/29 00:48:40;;;;;;;3.15;1.33;;;14.30;86.10;;;;;;5090235;28;20031;-69
2023/10/29 00:51:06;;;;;;;2.25;1.00;;;14.30;86.10;;;;;;5088965;28;20024;-70
2023/10/29 00:53:33;;;;;;;4.10;0.95;;;14.30;86.10;;;;;;5089719;28;20112;-69
2023/10/29 00:56:01;;;;;;;2.20;1.05;;;14.30;86.10;;;;;;5104461;28;20126;-69
2023/10/29 00:58:27;;;;;;;3.72;1.25;;;14.30;86.10;;;;;;5087891;28;20372;-70
2023/10/29 01:00:53;;;;;;;2.78;1.10;;;14.30;86.10;;;;;;5088878;28;20130;-69
2023/10/29 01:03:19;;;;;;;3.45;1.30;;;14.30;86.10;;;;;;5087643;28;20732;-69
2023/10/29 01:05:46;;;;;;;3.17;1.13;;;14.30;86.10;;;;;;5072993;28;20016;-70
2023/10/29 01:08:12;;;;;;;3.30;1.10;;;14.30;86.10;;;;;;5090083;28;20016;-69
2023/10/29 01:10:40;;;;;;;2.90;0.95;;;14.30;86.10;;;;;;5070749;28;20372;-69
2023/10/29 01:13:06;;;;;;;2.42;1.10;;;14.30;86.10;;;;;;5088213;28;20024;-69
2023/10/29 01:15:33;;;;;;;2.55;1.20;;;14.30;86.10;;;;;;5088846;28;20110;-69
2023/10/29 01:17:59;;;;;;;2.38;1.20;;;14.30;86.10;;;;;;5089433;28;20032;-69
2023/10/29 01:20:25;;;;;;;2.20;1.00;;;14.40;86.10;;;;;;5087458;28;20043;-69
2023/10/29 01:22:51;;;;;;;2.90;1.08;;;14.40;86.10;;;;;;5087016;28;20038;-70
2023/10/29 01:25:17;;;;;;;2.65;1.00;;;14.40;86.10;;;;;;5071558;28;20428;-69
2023/10/29 01:27:44;;;;;;;3.15;1.08;;;14.40;86.10;;;;;;5091256;28;20035;-69
2023/10/29 01:30:10;;;;;;;3.83;1.40;;;14.40;86.10;;;;;;5091604;28;20040;-69
2023/10/29 01:32:38;;;;;;;2.72;1.00;;;14.40;86.10;;;;;;5088726;28;20038;-69
2023/10/29 01:35:04;;;;;;;2.28;1.15;;;14.40;86.10;;;;;;5090627;28;20031;-69
2023/10/29 01:37:30;;;;;;;3.13;1.20;;;14.40;86.10;;;;;;5088767;28;20019;-69
2023/10/29 01:39:56;;;;;;;3.95;1.17;;;14.40;86.10;;;;;;5088394;28;20459;-69
2023/10/29 01:42:22;;;;;;;2.47;1.10;;;14.40;86.00;;;;;;5087972;28;20039;-69
2023/10/29 01:44:48;;;;;;;3.33;1.20;;;14.40;86.10;;;;;;5092054;28;20341;-69
2023/10/29 01:47:14;;;;;;;4.78;1.75;;;14.40;86.10;;;;;;5094318;28;20016;-70
2023/10/29 01:49:40;;;;;;;2.28;1.00;;;14.40;86.10;;;;;;5088132;28;20026;-69
2023/10/29 01:52:06;;;;;;;1.95;1.10;;;14.40;86.00;;;;;;5088353;28;20025;-69
2023/10/29 01:54:32;;;;;;;3.60;1.10;;;14.40;86.10;;;;;;5089672;28;20020;-69
2023/10/29 01:56:58;;;;;;;3.53;1.50;;;14.40;86.10;;;;;;5089093;28;20028;-69
2023/10/29 01:59:23;;;;;;;2.60;1.08;;;14.40;86.00;;;;;;5088337;28;20032;-69
2023/10/29 02:01:50;;;;;;;3.60;1.35;;;14.40;86.00;;;;;;5071428;28;20133;-69
2023/10/29 02:04:16;;;;;;;3.65;1.20;;;14.50;86.00;;;;;;5093584;28;20479;-69
2023/10/29 02:06:42;;;;;;;2.38;1.05;;;14.50;85.90;;;;;;5089298;28;20119;-69
2023/10/29 02:09:09;;;;;;;2.67;1.20;;;14.50;85.90;;;;;;5088332;28;20111;-69
2023/10/29 02:11:38;;;;;;;2.25;0.95;;;14.50;85.90;;;;;;5089003;28;20028;-69
2023/10/29 02:14:08;;;;;;;2.63;1.10;;;14.50;85.90;;;;;;5088869;28;20024;-70
2023/10/29 02:16:33;;;;;;;4.93;1.38;;;14.50;85.80;;;;;;5069253;28;20040;-69
2023/10/29 02:18:59;;;;;;;8.35;1.70;;;14.50;85.80;;;;;;5069954;28;20189;-69
2023/10/29 02:21:25;;;;;;;4.53;1.20;;;14.50;85.80;;;;;;5071339;28;20032;-69
2023/10/29 02:23:54;;;;;;;3.08;1.10;;;14.50;85.70;;;;;;5071176;28;20020;-69
2023/10/29 02:26:22;;;;;;;3.00;1.15;;;14.60;85.70;;;;;;5088392;28;20458;-69
2023/10/29 02:28:47;;;;;;;2.95;1.10;;;14.60;85.60;;;;;;5086244;28;20025;-69
2023/10/29 02:31:17;;;;;;;3.53;1.42;;;14.60;85.50;;;;;;5086773;28;20032;-70
2023/10/29 02:33:46;;;;;;;4.93;1.70;;;14.60;85.50;;;;;;5088576;28;20035;-69
2023/10/29 02:36:12;;;;;;;3.80;1.30;;;14.60;85.50;;;;;;5086840;28;20115;-69
2023/10/29 02:38:38;;;;;;;3.22;1.05;;;14.60;85.40;;;;;;5089072;28;20024;-69
2023/10/29 02:41:05;;;;;;;3.67;1.30;;;14.70;85.40;;;;;;5086749;28;20020;-69
2023/10/29 02:43:31;;;;;;;3.45;1.30;;;14.70;85.30;;;;;;5070366;28;20386;-69
2023/10/29 02:45:57;;;;;;;5.20;1.60;;;14.70;85.20;;;;;;5085874;28;20017;-70
2023/10/29 02:48:24;;;;;;;4.30;1.52;;;14.70;85.20;;;;;;5090389;28;20067;-69
2023/10/29 02:50:51;;;;;;;2.30;1.17;;;14.70;85.10;;;;;;5089810;28;20028;-69
2023/10/29 02:53:18;;;;;;;3.97;1.23;;;14.70;85.10;;;;;;5088380;28;20032;-69
2023/10/29 02:55:44;;;;;;;4.07;1.30;;;14.80;85.10;;;;;;5092518;28;20387;-69
2023/10/29 02:58:10;;;;;;;2.30;1.20;;;14.80;84.90;;;;;;5089993;28;20053;-69
2023/10/29 03:00:35;;;;;;;4.30;1.40;;;14.80;84.90;;;;;;5087638;28;20455;-69
2023/10/29 03:03:01;;;;;;;2.72;1.40;;;14.80;84.80;;;;;;5089172;28;20477;-70
2023/10/29 03:05:27;;;;;;;6.82;1.70;;;14.80;84.70;;;;;;5088283;28;20405;-69
2023/10/29 03:07:53;;;;;;;2.10;1.15;;;14.80;84.60;;;;;;5087027;28;20016;-69
2023/10/29 03:10:19;;;;;;;3.03;1.20;;;14.80;84.60;;;;;;5089050;28;20146;-69
2023/10/29 03:12:45;;;;;;;4.28;1.08;;;14.90;84.50;;;;;;5092558;28;20028;-69
2023/10/29 03:15:12;;;;;;;1.95;0.90;;;14.90;84.40;;;;;;5091353;28;20051;-69
2023/10/29 03:17:37;;;;;;;3.00;1.10;;;14.90;84.40;;;;;;5092258;28;20040;-69
2023/10/29 03:20:04;;;;;;;4.20;1.33;;;14.80;84.20;;;;;;5090965;28;20460;-69
2023/10/29 03:22:29;;;;;;;2.50;1.15;;;14.90;84.20;;;;;;5090868;28;20024;-69
2023/10/29 03:24:55;;;;;;;4.13;1.00;;;14.80;84.10;;;;;;5091380;28;20031;-69
2023/10/29 03:27:21;;;;;;;2.42;1.10;;;14.90;84.10;;;;;;5091316;28;20529;-69
2023/10/29 03:29:47;;;;;;;4.07;1.20;;;14.90;84.00;;;;;;5092314;28;20476;-69
2023/10/29 03:32:12;;;;;;;1.52;0.63;;;14.80;83.90;;;;;;5091366;28;20029;-69
2023/10/29 03:34:38;;;;;;;3.50;0.90;;;14.90;83.80;;;;;;5091310;28;20027;-69
2023/10/29 03:37:05;;;;;;;2.28;0.98;;;14.90;83.80;;;;;;5072572;28;20123;-69
2023/10/29 03:39:31;;;;;;;2.40;1.00;;;14.90;83.70;;;;;;5090865;28;20530;-69
2023/10/29 03:41:57;;;;;;;3.08;1.10;;;14.90;83.70;;;;;;5088318;28;20054;-69
2023/10/29 03:44:22;;;;;;;2.78;1.02;;;14.90;83.60;;;;;;5076368;28;20040;-69
2023/10/29 03:46:52;;;;;;;4.07;1.00;;;14.90;83.50;;;;;;5091361;28;20028;-69
2023/10/29 03:49:18;;;;;;;2.30;0.90;;;14.90;83.50;;;;;;5089107;28;20472;-69
2023/10/29 03:51:46;;;;;;;2.28;1.08;;;14.90;83.40;;;;;;5084895;28;20048;-69
2023/10/29 03:54:12;;;;;;;3.10;1.08;;;14.90;83.30;;;;;;5083175;28;20032;-69
2023/10/29 03:56:37;;;;;;;3.15;1.00;;;14.90;83.30;;;;;;5081514;28;20030;-69
2023/10/29 03:59:03;;;;;;;3.80;1.00;;;14.90;83.20;;;;;;5077508;28;20479;-70
2023/10/29 04:01:29;;;;;;;2.15;0.82;;;15.00;83.10;;;;;;5082159;28;20025;-69
2023/10/29 04:03:55;;;;;;;1.52;0.80;;;15.00;83.10;;;;;;5079021;28;20028;-69
2023/10/29 04:06:21;;;;;;;3.67;1.13;;;15.00;82.90;;;;;;5090691;28;20032;-69
2023/10/29 04:08:47;;;;;;;3.75;1.10;;;15.00;82.90;;;;;;5078722;28;20044;-69
2023/10/29 04:11:13;;;;;;;3.05;1.15;;;15.00;82.90;;;;;;5085439;28;20057;-69
2023/10/29 04:13:39;;;;;;;2.45;0.85;;;15.00;83.00;;;;;;5081133;28;20119;-69
2023/10/29 04:16:06;;;;;;;2.00;1.00;;;15.00;82.90;;;;;;5081858;28;20027;-69
2023/10/29 04:18:33;;;;;;;2.60;0.90;;;15.00;82.80;;;;;;5080370;28;20058;-69
2023/10/29 04:21:02;;;;;;;3.08;0.93;;;15.00;82.80;;;;;;5076855;28;20124;-69
2023/10/29 04:23:28;;;;;;;2.65;1.08;;;14.90;82.70;;;;;;5084885;28;20028;-69
2023/10/29 04:25:54;;;;;;;2.40;0.90;;;14.90;82.60;;;;;;5077072;28;20028;-69
2023/10/29 04:28:20;;;;;;;2.95;1.25;;;15.00;82.60;;;;;;5077243;28;20021;-69
2023/10/29 04:30:45;;;;;;;1.30;0.70;;;15.00;82.60;;;;;;5079566;28;20036;-69
2023/10/29 04:33:11;;;;;;;4.78;1.17;;;15.00;82.60;;;;;;5073806;28;21224;-69
2023/10/29 04:35:37;;;;;;;3.60;0.90;;;14.90;82.50;;;;;;5076107;28;20461;-69
2023/10/29 04:38:03;;;;;;;1.25;0.80;;;14.90;82.50;;;;;;5077681;28;20028;-69
2023/10/29 04:40:28;;;;;;;4.07;1.23;;;14.90;82.50;;;;;;5081895;28;20059;-69
2023/10/29 04:42:54;;;;;;;2.30;0.77;;;14.90;82.60;;;;;;5079915;28;20024;-69
2023/10/29 04:45:20;;;;;;;3.70;1.30;;;14.90;82.60;;;;;;5073865;28;20087;-69
2023/10/29 04:47:46;;;;;;;3.60;1.15;;;14.90;82.60;;;;;;5078330;28;20082;-69
2023/10/29 04:50:11;;;;;;;4.20;1.20;;;14.90;82.60;;;;;;5077184;28;20128;-69
2023/10/29 04:52:38;;;;;;;1.80;0.85;;;14.90;82.60;;;;;;5083439;28;20213;-71
2023/10/29 04:55:05;;;;;;;2.33;0.98;;;14.90;82.60;;;;;;5076307;28;20032;-69
2023/10/29 04:57:31;;;;;;;1.25;0.70;;;14.90;82.60;;;;;;5075728;28;20063;-69
2023/10/29 04:59:57;;;;;;;4.07;1.23;;;14.90;82.50;;;;;;5077914;28;20059;-69
2023/10/29 05:02:23;;;;;;;4.82;1.27;;;14.90;82.40;;;;;;5078322;28;20031;-69
2023/10/29 05:04:51;;;;;;;2.50;0.90;;;15.00;82.50;;;;;;5078553;28;20033;-69
2023/10/29 05:07:17;;;;;;;2.83;1.00;;;15.00;82.60;;;;;;5081158;28;20028;-69
2023/10/29 05:09:43;;;;;;;3.55;1.20;;;14.90;82.60;;;;;;5073704;28;20067;-70
2023/10/29 05:12:09;;;;;;;3.05;1.05;;;14.90;82.70;;;;;;5080132;28;20036;-69
2023/10/29 05:14:35;;;;;;;3.20;1.13;;;14.90;82.80;;;;;;5074870;28;20088;-69
2023/10/29 05:17:02;;;;;;;3.08;1.10;;;14.90;83.00;;;;;;5084574;28;20036;-69
2023/10/29 05:19:28;;;;;;;2.75;0.90;;;14.90;83.20;;;;;;5073497;28;20021;-69
2023/10/29 05:21:53;;;;;;;3.50;1.10;;;14.90;83.30;;;;;;5088874;28;20036;-69
2023/10/29 05:24:20;;;;;;;2.55;1.10;;;14.80;83.40;;;;;;5083285;28;20016;-69
2023/10/29 05:26:46;;;;;;;4.78;1.05;;;14.80;83.50;;;;;;5079313;28;20505;-69
2023/10/29 05:29:12;;;;;;;2.80;1.10;;;14.80;83.70;;;;;;5078631;28;20058;-70
2023/10/29 05:31:38;;;;;;;4.47;1.13;;;14.70;83.70;;;;;;5077067;28;20032;-70
2023/10/29 05:34:04;;;;;;;2.22;0.90;;;14.80;83.90;;;;;;5089644;28;20111;-69
2023/10/29 05:36:30;;;;;;;2.13;0.90;;;14.70;83.80;;;;;;5084190;28;20424;-69
2023/10/29 05:38:56;;;;;;;1.65;0.75;;;14.70;83.80;;;;;;5089161;28;20034;-69
2023/10/29 05:41:22;;;;;;;2.80;1.00;;;14.70;83.90;;;;;;5080622;28;20437;-69
2023/10/29 05:43:48;;;;;;;4.63;1.05;;;14.70;83.90;;;;;;5076738;28;20036;-69
2023/10/29 05:46:14;;;;;;;2.63;0.93;;;14.70;83.90;;;;;;5076447;28;20032;-69
2023/10/29 05:48:40;;;;;;;3.58;1.17;;;14.70;83.90;;;;;;5079097;28;20016;-69
2023/10/29 05:51:06;;;;;;;2.35;1.05;;;14.70;83.90;;;;;;5087971;28;20024;-69
2023/10/29 05:53:32;;;;;;;4.65;0.98;;;14.70;83.90;;;;;;5087426;28;20053;-69
2023/10/29 05:55:58;;;;;;;2.83;1.15;;;14.70;83.80;;;;;;5085955;28;20073;-69
2023/10/29 05:58:24;;;;;;;1.75;1.10;;;14.70;83.80;;;;;;5087068;28;20031;-69
2023/10/29 06:00:50;;;;;;;1.35;0.90;;;14.70;83.80;;;;;;5084183;28;20036;-69
2023/10/29 06:03:16;;;;;;;2.13;0.85;;;14.70;83.70;;;;;;5085731;28;20052;-69
2023/10/29 06:05:42;;;;;;;4.05;1.00;;;14.70;83.50;;;;;;5086541;28;20101;-69
2023/10/29 06:08:08;;;;;;;2.20;0.80;;;14.70;83.30;;;;;;5086703;28;20475;-68
2023/10/29 06:10:33;;;;;;;2.22;0.80;;;14.70;83.20;;;;;;5085997;28;20035;-68
2023/10/29 06:12:59;;;;;;;3.83;1.23;;;14.70;83.00;;;;;;5086581;28;20035;-68
2023/10/29 06:15:26;;;;;;;1.67;0.70;;;14.70;82.90;;;;;;5086975;28;20028;-69
2023/10/29 06:17:53;;;;;;;2.58;0.93;;;14.70;82.70;;;;;;5088008;28;20028;-68
2023/10/29 06:20:21;;;;;;;3.28;0.77;;;14.70;82.50;;;;;;5086077;28;20127;-68
2023/10/29 06:22:50;;;;;;;2.85;1.02;;;14.60;83.00;;;;;;5086737;28;20077;-69
2023/10/29 06:25:16;;;;;;;3.88;0.93;;;14.60;82.20;;;;;;5086269;28;20089;-69
2023/10/29 06:27:42;;;;;;;1.52;0.63;;;14.60;82.10;;;;;;5086330;28;20024;-70
2023/10/29 06:30:11;;;;;;;2.10;0.80;;;14.60;82.00;;;;;;5085870;28;20031;-70
2023/10/29 06:32:36;;;;;;;3.20;0.80;;;14.60;81.90;;;;;;5089066;28;20081;-70
2023/10/29 06:35:03;;;;;;;3.75;0.80;;;14.60;81.80;;;;;;5087913;28;20036;-70
2023/10/29 06:37:29;;;;;;;4.60;0.90;;;14.60;81.80;;;;;;5086539;28;20069;-70
2023/10/29 06:39:56;;;;;;;3.17;1.17;;;14.60;81.70;;;;;;5086810;28;20437;-70
2023/10/29 06:42:21;;;;;;;2.60;0.80;;;14.60;81.60;;;;;;5086354;28;20058;-70
2023/10/29 06:44:47;;;;;;;2.10;0.80;;;14.50;81.50;;;;;;5089597;28;20024;-70
2023/10/29 06:47:14;;;;;;;2.47;0.90;;;14.50;81.50;;;;;;5090803;28;20401;-70
2023/10/29 06:49:40;;;;;;;3.97;0.80;;;14.50;81.50;;;;;;5091062;28;20099;-70
2023/10/29 06:52:08;;;;;;;2.40;0.60;;;14.50;81.50;;;;;;5090931;28;20032;-70
2023/10/29 06:54:34;;;;;;;2.20;0.77;;;14.50;81.40;;;;;;5095222;28;20118;-70
2023/10/29 06:57:00;;;;;;;2.78;0.80;;;14.50;81.30;;;;;;5091888;28;20115;-70
2023/10/29 06:59:28;;;;;;;3.88;1.08;;;14.50;81.20;;;;;;5091518;28;20035;-70
2023/10/29 07:01:56;;;;;;;1.58;0.75;;;14.50;81.10;;;;;;5090099;28;20031;-69
2023/10/29 07:04:22;;;;;;;2.47;0.70;;;14.50;81.10;;;;;;5090692;28;20464;-69
2023/10/29 07:06:49;;;;;;;6.57;1.13;;;14.50;81.00;;;;;;5090901;28;20030;-70
2023/10/29 07:09:15;;;;;;;2.28;0.88;;;14.50;81.10;;;;;;5094633;28;20036;-70
2023/10/29 07:11:45;;;;;;;5.85;1.10;;;14.50;81.00;;;;;;5091465;28;20023;-70
2023/10/29 07:14:12;;;;;;;4.03;0.95;;;14.50;81.10;;;;;;5090298;28;20467;-70
2023/10/29 07:16:44;;;;;;;3.30;0.70;;;14.50;81.10;;;;;;5090635;28;20479;-70
2023/10/29 07:19:10;;;;;;;2.50;0.77;;;14.60;81.10;;;;;;5089538;28;20070;-69
2023/10/29 07:21:37;;;;;;;4.50;1.00;;;14.60;81.00;;;;;;5106525;27;20027;-69
2023/10/29 07:24:05;;;;;;;4.75;0.90;;;14.60;81.00;;;;;;5091949;28;20016;-70
2023/10/29 07:26:31;;;;;;;3.75;1.00;;;14.70;81.00;;;;;;5090245;28;20440;-70
2023/10/29 07:28:57;;;;;;;2.65;0.82;;;14.80;80.90;;;;;;5090426;28;20037;-69
2023/10/29 07:31:23;;;;;;;3.10;0.80;;;14.80;80.70;;;;;;5094015;28;20028;-70
2023/10/29 07:33:48;;;;;;;2.58;0.80;;;14.90;80.70;;;;;;5092361;28;20031;-70
2023/10/29 07:36:14;;;;;;;7.22;1.33;;;14.90;80.50;;;;;;5092128;28;20035;-69
2023/10/29 07:38:40;;;;;;;4.22;0.90;;;15.00;80.20;;;;;;5091053;28;20135;-69
2023/10/29 07:41:05;;;;;;;4.70;1.05;;;15.00;80.20;;;;;;5088685;28;20426;-69
2023/10/29 07:43:31;;;;;;;6.70;1.38;;;15.00;80.10;;;;;;5092683;28;20043;-69
2023/10/29 07:46:04;;;;;;;5.72;1.33;;;15.00;80.00;;;;;;5090918;28;20106;-69
2023/10/29 07:48:29;;;;;;;6.63;1.67;;;15.00;79.90;;;;;;5089046;28;20025;-69
2023/10/29 07:50:55;;;;;;;6.60;1.60;;;15.10;79.90;;;;;;5090254;28;20024;-69
2023/10/29 07:53:21;;;;;;;3.45;1.48;;;15.10;79.90;;;;;;5092510;28;20024;-69
2023/10/29 07:55:47;;;;;;;3.40;1.08;;;15.10;79.70;;;;;;5095187;28;20076;-69
2023/10/29 07:58:13;;;;;;;6.72;1.40;;;15.10;79.60;;;;;;5082773;28;20514;-69
2023/10/29 08:00:39;;;;;;;4.93;1.50;;;15.10;79.60;;;;;;5088302;28;20088;-69
2023/10/29 08:03:05;;;;;;;6.22;1.40;;;15.10;79.40;;;;;;5090371;28;20070;-69
2023/10/29 08:05:30;;;;;;;8.00;1.52;;;15.10;79.30;;;;;;5094996;28;20082;-68
2023/10/29 08:07:56;;;;;;;7.10;1.55;;;15.10;79.20;;;;;;5085778;28;20031;-68
2023/10/29 08:10:24;;;;;;;6.55;1.10;;;15.10;79.00;;;;;;5088067;28;20163;-69
2023/10/29 08:12:50;;;;;;;7.88;1.77;;;15.10;79.00;;;;;;5088165;28;20043;-69
2023/10/29 08:15:16;;;;;;;5.15;1.33;;;15.10;78.90;;;;;;5088795;28;20051;-69
2023/10/29 08:17:42;;;;;;;9.88;1.58;;;15.10;78.80;;;;;;5087358;28;20123;-69
2023/10/29 08:20:08;;;;;;;6.25;1.35;;;15.10;78.70;;;;;;5089392;28;20127;-69
2023/10/29 08:22:34;;;;;;;5.70;1.75;;;15.10;78.70;;;;;;5089456;28;20452;-69
2023/10/29 08:25:00;;;;;;;5.10;1.20;;;15.10;78.70;;;;;;5088521;28;20085;-69
2023/10/29 08:27:26;;;;;;;4.90;1.45;;;15.20;78.60;;;;;;5089469;28;20054;-69
2023/10/29 08:29:52;;;;;;;6.75;1.23;;;15.20;78.40;;;;;;5087383;28;20074;-69
2023/10/29 08:32:18;;;;;;;5.00;1.20;;;15.30;78.20;;;;;;5097577;28;20051;-70
2023/10/29 08:34:44;;;;;;;8.40;1.52;;;15.40;78.10;;;;;;5087552;28;20024;-70
2023/10/29 08:37:10;;;;;;;8.40;1.52;;;15.40;77.80;;;;;;5089788;28;20032;-70
2023/10/29 08:39:36;;;;;;;4.88;1.30;;;15.50;77.70;;;;;;5091472;28;20067;-69
2023/10/29 08:42:02;;;;;;;4.40;1.25;;;15.60;77.60;;;;;;5089554;28;20020;-69
2023/10/29 08:44:29;;;;;;;6.55;1.85;;;15.70;77.50;;;;;;5090518;28;20028;-69
2023/10/29 08:46:55;;;;;;;6.60;1.55;;;15.80;77.20;;;;;;5090829;28;20028;-69
2023/10/29 08:49:20;;;;;;;6.25;1.75;;;15.80;76.90;;;;;;5089125;28;20028;-69
2023/10/29 08:51:46;;;;;;;6.05;1.40;;;15.80;76.80;;;;;;5091019;28;20035;-69
2023/10/29 08:54:12;;;;;;;7.68;1.42;;;15.80;76.60;;;;;;5089418;28;20043;-69
2023/10/29 08:56:37;;;;;;;6.95;2.05;;;15.80;76.50;;;;;;5088857;28;20031;-69
2023/10/29 08:59:04;;;;;;;7.13;1.60;;;15.80;76.40;;;;;;5090767;28;20024;-69
2023/10/29 09:01:33;;;;;;;4.28;1.25;;;15.90;76.10;;;;;;5087715;28;20047;-70
2023/10/29 09:03:59;;;;;;;7.80;1.80;;;16.00;75.80;;;;;;5088872;28;20036;-69
2023/10/29 09:06:26;;;;;;;5.85;1.77;;;16.00;75.70;;;;;;5087977;28;20127;-70
2023/10/29 09:08:53;;;;;;;8.20;1.60;;;16.00;75.60;;;;;;5086533;28;20721;-70
2023/10/29 09:11:19;;;;;;;6.90;1.65;;;16.10;75.50;;;;;;5086867;28;20035;-69
2023/10/29 09:13:45;;;;;;;6.30;1.85;;;16.20;75.30;;;;;;5089702;28;20028;-70
2023/10/29 09:16:11;;;;;;;5.97;1.35;;;16.30;75.10;;;;;;5090660;28;20067;-70
2023/10/29 09:18:36;;;;;;;4.80;1.10;;;16.40;74.70;;;;;;5088701;28;20028;-70
2023/10/29 09:21:03;;;;;;;3.60;0.93;;;16.50;74.30;;;;;;5082437;28;20028;-70
2023/10/29 09:23:29;;;;;;;6.95;1.50;;;16.50;74.00;;;;;;5096868;28;20072;-69
2023/10/29 09:25:55;;;;;;;8.05;1.63;;;16.40;73.70;;;;;;5093667;28;20103;-69
2023/10/29 09:28:21;;;;;;;7.18;1.75;;;16.40;73.50;;;;;;5091300;28;20020;-69
2023/10/29 09:30:47;;;;;;;5.07;1.40;;;16.40;73.40;;;;;;5090367;28;20032;-69
2023/10/29 09:33:15;;;;;;;5.70;1.75;;;16.40;73.30;;;;;;5088818;28;20138;-69
2023/10/29 09:35:41;;;;;;;9.02;2.15;;;16.40;73.20;;;;;;5089836;28;20093;-69
2023/10/29 09:38:07;;;;;;;4.30;1.33;;;16.40;73.00;;;;;;5087223;28;20411;-71
2023/10/29 09:40:35;;;;;;;7.50;1.35;;;16.50;72.90;;;;;;5077710;28;20032;-69
2023/10/29 09:43:04;;;;;;;6.20;1.60;;;16.60;72.50;;;;;;5070128;28;20323;-69
2023/10/29 09:45:33;;;;;;;6.35;1.63;;;16.80;72.10;;;;;;5093203;28;20085;-69
2023/10/29 09:47:59;;;;;;;7.85;1.95;;;16.80;71.60;;;;;;5088090;28;20111;-70
2023/10/29 09:50:25;;;;;;;5.10;1.13;;;17.00;71.30;;;;;;5089495;28;20059;-70
2023/10/29 09:52:52;;;;;;;5.32;1.40;;;17.10;70.80;;;;;;5086909;28;20380;-70
2023/10/29 09:55:22;;;;;;;6.20;1.30;;;17.00;70.60;;;;;;5079487;28;20115;-70
2023/10/29 09:57:49;;;;;;;6.07;1.20;;;16.90;70.40;;;;;;5073573;28;20294;-70
2023/10/29 10:00:15;;;;;;;7.50;1.50;;;16.90;70.20;;;;;;5078320;28;20032;-70
2023/10/29 10:02:56;;;;;;;5.03;1.35;;;16.80;70.00;;;;;;5092763;28;20027;-70
2023/10/29 10:05:23;;;;;;;3.35;1.15;;;16.80;69.70;;;;;;5085583;28;20045;-70
2023/10/29 10:07:55;;;;;;;5.68;1.67;;;16.80;69.70;;;;;;5075359;28;20077;-70
2023/10/29 10:10:21;;;;;;;4.38;1.35;;;17.00;69.30;;;;;;5079272;28;20028;-70
2023/10/29 10:12:48;;;;;;;7.72;2.05;;;17.30;69.10;;;;;;5075835;28;20063;-69
2023/10/29 10:15:16;;;;;;;8.75;1.67;;;17.50;68.40;;;;;;5077845;28;20028;-70
2023/10/29 10:18:08;;;;;;;5.40;1.48;;;17.60;67.90;;;;;;5075892;28;20028;-70
2023/10/29 10:20:35;;;;;;;5.15;1.25;;;17.60;67.40;;;;;;5071995;28;20045;-70
2023/10/29 10:23:02;;;;;;;10.43;1.73;;;17.50;67.50;;;;;;5089889;28;20024;-70
2023/10/29 10:25:29;;;;;;;5.75;1.40;;;17.40;67.40;;;;;;5077689;28;20119;-70
2023/10/29 10:27:57;;;;;;;4.80;1.30;;;17.40;67.50;;;;;;5087512;28;20016;-70
2023/10/29 10:30:39;;;;;;;7.38;1.52;;;17.20;67.30;;;;;;5090518;28;20326;-70
2023/10/29 10:33:08;;;;;;;3.22;1.20;;;17.10;67.40;;;;;;5098464;28;20100;-70
2023/10/29 10:35:44;;;;;;;5.93;1.80;;;17.00;67.60;;;;;;5097185;28;20433;-70
2023/10/29 10:38:10;;;;;;;6.40;1.30;;;16.90;67.50;;;;;;5086372;28;20028;-70
2023/10/29 10:40:37;;;;;;;7.10;1.45;;;16.80;67.60;;;;;;5090237;28;20030;-70
2023/10/29 10:43:07;;;;;;;6.88;1.35;;;16.70;67.60;;;;;;5092769;28;20403;-70
2023/10/29 10:45:33;;;;;;;4.72;1.25;;;16.70;67.60;;;;;;5095078;28;20118;-70
2023/10/29 10:48:03;;;;;;;6.72;1.40;;;16.60;67.70;;;;;;5096760;28;20028;-70
2023/10/29 10:50:30;;;;;;;6.95;1.23;;;16.60;67.80;;;;;;5083623;28;20039;-70
2023/10/29 10:52:57;;;;;;;7.35;1.55;;;16.60;67.60;;;;;;5094223;28;20051;-70
2023/10/29 10:55:24;;;;;;;4.90;1.10;;;16.70;67.30;;;;;;5091093;28;20161;-70
2023/10/29 10:57:51;;;;;;;6.75;1.27;;;16.80;67.10;;;;;;5091353;28;20027;-70
2023/10/29 11:00:19;;;;;;;5.45;1.40;;;16.90;67.10;;;;;;5091504;28;20363;-70
2023/10/29 11:02:46;;;;;;;8.40;1.50;;;17.00;66.90;;;;;;5091762;28;20089;-70
2023/10/29 11:05:15;;;;;;;9.45;1.95;;;17.00;66.60;;;;;;5091227;28;20040;-70
2023/10/29 11:07:43;;;;;;;7.53;1.27;;;17.00;66.80;;;;;;5089393;28;20028;-70
2023/10/29 11:10:13;;;;;;;7.43;1.35;;;17.00;66.90;;;;;;5091033;28;20044;-70
2023/10/29 11:12:40;;;;;;;5.45;1.23;;;16.90;66.80;;;;;;5091382;28;20347;-70
2023/10/29 11:15:19;;;;;;;6.63;1.73;;;16.90;67.00;;;;;;5090733;28;20499;-70
2023/10/29 11:17:52;;;;;;;7.03;1.30;;;16.80;67.00;;;;;;5088762;28;20735;-70
2023/10/29 11:20:36;;;;;;;7.07;1.33;;;16.70;66.90;;;;;;5090890;28;20048;-70
2023/10/29 11:23:21;;;;;;;6.43;1.70;;;16.70;67.00;;;;;;5092353;28;20027;-70
2023/10/29 11:25:46;;;;;;;6.65;1.70;;;16.60;67.00;;;;;;5090154;28;20054;-70
2023/10/29 11:28:24;;;;;;;5.70;1.08;;;16.60;67.30;;;;;;5092043;28;20109;-70
2023/10/29 11:31:14;;;;;;;5.53;1.67;;;16.50;67.40;;;;;;5090579;28;20146;-70
2023/10/29 11:33:42;;;;;;;4.13;1.13;;;16.50;67.60;;;;;;5089795;28;20038;-67
2023/10/29 11:36:31;;;;;;;4.32;1.30;;;16.40;67.70;;;;;;5088789;28;20122;-69
2023/10/29 11:39:15;;;;;;;7.82;1.35;;;16.40;67.60;;;;;;5079197;28;20032;-69
2023/10/29 11:41:47;;;;;;;7.25;1.40;;;16.40;67.60;;;;;;5089756;28;20056;-69
2023/10/29 11:44:19;;;;;;;6.30;1.50;;;16.40;67.70;;;;;;5082720;28;20054;-69
2023/10/29 11:47:02;;;;;;;8.43;1.88;;;16.30;67.70;;;;;;5092424;28;20035;-70
2023/10/29 11:49:50;;;;;;;6.93;1.35;;;16.30;67.60;;;;;;5063510;28;20024;-69
2023/10/29 11:52:16;;;;;;;6.65;1.63;;;16.30;67.90;;;;;;5079523;28;20275;-69
2023/10/29 11:54:42;;;;;;;6.60;1.45;;;16.30;68.00;;;;;;5077065;28;20024;-69
2023/10/29 11:57:09;;;;;;;6.65;1.67;;;16.40;68.10;;;;;;5080921;28;20406;-69
2023/10/29 11:59:52;;;;;;;8.00;1.58;;;16.40;68.10;;;;;;5096645;28;20036;-70
2023/10/29 12:02:18;;;;;;;6.40;1.55;;;16.40;68.00;;;;;;5085857;28;20027;-69
2023/10/29 12:04:43;;;;;;;7.93;1.40;;;16.30;68.00;;;;;;5078872;28;20036;-69
2023/10/29 12:07:26;;;;;;;7.75;1.90;;;16.30;68.20;;;;;;5087686;28;20051;-69
2023/10/29 12:10:08;;;;;;;7.55;1.42;;;16.30;68.20;;;;;;5081953;28;20357;-70
2023/10/29 12:12:34;;;;;;;7.65;1.60;;;16.40;68.30;;;;;;5079381;28;20036;-69
2023/10/29 12:15:01;;;;;;;7.72;1.50;;;16.40;68.20;;;;;;5077470;28;20421;-69
2023/10/29 12:17:28;;;;;;;5.07;1.30;;;16.50;68.00;;;;;;5078303;28;20375;-69
2023/10/29 12:19:54;;;;;;;6.70;1.50;;;16.60;68.40;;;;;;5077365;28;20082;-70
2023/10/29 12:22:27;;;;;;;5.65;1.50;;;16.70;67.60;;;;;;5080301;28;20400;-69
2023/10/29 12:24:59;;;;;;;6.18;1.75;;;16.80;67.70;;;;;;5074516;28;20433;-69
2023/10/29 12:27:25;;;;;;;7.63;2.03;;;16.80;67.50;;;;;;5082098;28;20083;-69
2023/10/29 12:29:51;;;;;;;5.70;1.25;;;16.70;67.40;;;;;;5088684;28;20024;-69
2023/10/29 12:32:19;;;;;;;4.80;1.23;;;16.70;67.50;;;;;;5092525;28;20077;-71
2023/10/29 12:34:50;;;;;;;5.88;1.23;;;16.70;67.50;;;;;;5086091;28;20718;-71
2023/10/29 12:37:24;;;;;;;7.90;1.73;;;16.70;67.60;;;;;;5089375;28;20056;-71
2023/10/29 12:39:52;;;;;;;5.35;1.23;;;16.70;67.60;;;;;;5087175;28;20063;-71
2023/10/29 12:42:19;;;;;;;5.97;1.35;;;16.80;67.60;;;;;;5085949;28;20344;-71
2023/10/29 12:44:54;;;;;;;10.95;2.20;;;16.80;67.50;;;;;;5093770;28;20051;-72